Time;durP1;ratioP1;P1;durP2;ratioP2;P2;SDS_P1;SDS_P2;PMS_P1;PMS_P2;Temp;Humidity;BMP_temperature;BMP_pressure;BME280_temperature;BME280_humidity;BME280_pressure;Samples;Min_cycle;Max_cycle;Signal;HPM_P1;HPM_P2
2022/01/09 00:00:43;;;;;;;;;1.00;1.00;;;;;9.88;62.91;99622.97;5067028;28;46118;-64
2022/01/09 00:03:08;;;;;;;;;3.75;1.00;;;;;9.91;63.21;99633.47;5074719;28;45416;-64
2022/01/09 00:05:34;;;;;;;;;1.00;0.00;;;;;9.93;63.28;99658.25;5059033;28;45499;-64
2022/01/09 00:08:00;;;;;;;;;3.00;1.50;;;;;9.88;62.92;99651.44;5062422;28;45315;-64
2022/01/09 00:10:30;;;;;;;;;2.75;1.00;;;;;9.79;62.39;99647.41;5071826;28;45332;-64
2022/01/09 00:12:56;;;;;;;;;1.00;0.75;;;;;9.83;63.19;99659.63;5058305;28;45692;-64
2022/01/09 00:15:22;;;;;;;;;3.00;1.00;;;;;9.85;63.00;99665.75;5059622;28;45326;-64
2022/01/09 00:17:47;;;;;;;;;2.00;0.75;;;;;9.89;62.50;99677.13;5062462;28;45248;-64
2022/01/09 00:20:13;;;;;;;;;4.25;1.00;;;;;9.85;62.94;99673.75;5070938;27;46023;-63
2022/01/09 00:22:48;;;;;;;;;1.75;0.75;;;;;9.89;63.01;99702.00;5062359;28;45343;-64
2022/01/09 00:25:15;;;;;;;;;5.00;1.00;;;;;9.81;62.61;99683.69;5079258;27;45856;-64
2022/01/09 00:27:41;;;;;;;;;4.25;0.50;;;;;9.85;62.78;99695.06;5065080;28;45326;-64
2022/01/09 00:30:09;;;;;;;;;3.50;1.50;;;;;9.88;62.80;99713.59;5066310;28;45674;-64
2022/01/09 00:32:36;;;;;;;;;4.50;1.00;;;;;9.88;62.43;99710.06;5076682;27;45564;-63
2022/01/09 00:35:01;;;;;;;;;1.25;0.00;;;;;9.89;62.40;99711.78;5063097;28;45381;-64
2022/01/09 00:37:27;;;;;;;;;4.00;0.75;;;;;9.89;62.71;99717.13;5065401;28;45555;-64
2022/01/09 00:39:53;;;;;;;;;4.25;1.00;;;;;9.87;62.71;99722.50;5071157;28;45416;-64
2022/01/09 00:42:19;;;;;;;;;1.25;1.00;;;;;9.87;62.30;99722.50;5069248;28;45417;-64
2022/01/09 00:44:44;;;;;;;;;5.00;1.00;;;;;9.87;62.51;99734.97;5076559;28;45436;-64
2022/01/09 00:47:10;;;;;;;;;1.00;1.00;;;;;9.87;62.02;99741.16;5065980;28;45561;-64
2022/01/09 00:49:35;;;;;;;;;1.25;1.00;;;;;9.89;62.34;99746.44;5074194;28;45432;-64
2022/01/09 00:52:00;;;;;;;;;3.25;1.00;;;;;9.84;62.05;99744.00;5077541;27;45434;-64
2022/01/09 00:54:26;;;;;;;;;4.50;1.75;;;;;9.85;62.20;99742.19;5061899;28;45287;-63
2022/01/09 00:56:51;;;;;;;;;1.00;0.00;;;;;9.88;61.98;99750.06;5068758;28;45515;-63
2022/01/09 00:59:16;;;;;;;;;1.00;1.00;;;;;9.92;61.76;99762.28;5072004;27;46117;-64
2022/01/09 01:01:42;;;;;;;;;1.75;0.00;;;;;9.83;62.05;99764.44;5075392;28;45478;-64
2022/01/09 01:04:07;;;;;;;;;2.00;0.75;;;;;9.86;61.78;99768.78;5073014;28;45632;-63
2022/01/09 01:06:33;;;;;;;;;2.50;1.00;;;;;9.92;62.00;99797.84;5061116;28;45514;-63
2022/01/09 01:08:58;;;;;;;;;2.00;2.00;;;;;9.88;61.29;99790.91;5062517;28;46984;-63
2022/01/09 01:11:23;;;;;;;;;3.50;2.00;;;;;9.88;61.50;99790.03;5071446;28;45348;-63
2022/01/09 01:13:49;;;;;;;;;0.50;0.50;;;;;9.85;61.20;99811.50;5076137;28;45307;-64
2022/01/09 01:16:14;;;;;;;;;2.75;1.00;;;;;9.89;61.03;99826.41;5071886;28;45510;-64
2022/01/09 01:18:43;;;;;;;;;1.00;1.00;;;;;9.89;61.10;99831.72;5074299;28;46167;-63
2022/01/09 01:21:08;;;;;;;;;1.00;1.00;;;;;9.84;61.07;99829.28;5061114;28;45260;-63
2022/01/09 01:23:34;;;;;;;;;0.00;0.00;;;;;9.86;61.43;99840.75;5062631;28;45406;-64
2022/01/09 01:26:01;;;;;;;;;4.00;1.00;;;;;9.84;61.24;99834.63;5061714;28;45758;-64
2022/01/09 01:28:27;;;;;;;;;3.00;0.75;;;;;9.81;61.30;99840.09;5062678;28;46319;-63
2022/01/09 01:30:53;;;;;;;;;4.50;1.00;;;;;9.77;60.86;99846.47;5070535;28;45394;-63
2022/01/09 01:33:18;;;;;;;;;2.50;0.50;;;;;9.75;60.96;99859.84;5080139;27;45416;-63
2022/01/09 01:35:44;;;;;;;;;1.00;1.00;;;;;9.70;60.77;99861.00;5060785;28;45342;-63
2022/01/09 01:38:09;;;;;;;;;1.00;0.25;;;;;9.75;61.03;99886.50;5061419;28;46099;-63
2022/01/09 01:40:34;;;;;;;;;2.75;0.75;;;;;9.69;61.60;99883.25;5074932;28;45390;-64
2022/01/09 01:43:00;;;;;;;;;0.75;0.00;;;;;9.72;61.16;99888.44;5066938;28;45411;-64
2022/01/09 01:45:26;;;;;;;;;0.00;0.00;;;;;9.69;61.38;99892.13;5069954;28;45275;-64
2022/01/09 01:47:51;;;;;;;;;2.00;1.75;;;;;9.70;61.76;99900.97;5070030;27;45445;-63
2022/01/09 01:50:17;;;;;;;;;0.00;0.00;;;;;9.68;61.59;99913.50;5077845;27;45389;-63
2022/01/09 01:52:46;;;;;;;;;2.50;0.50;;;;;9.65;61.67;99909.16;5065020;28;45400;-63
2022/01/09 01:55:13;;;;;;;;;3.00;0.00;;;;;9.66;61.73;99915.38;5061663;28;45347;-63
2022/01/09 01:57:40;;;;;;;;;0.75;0.75;;;;;9.68;61.71;99932.16;5066554;28;46363;-63
2022/01/09 02:00:09;;;;;;;;;3.00;1.00;;;;;9.68;61.87;99930.34;5067772;28;45326;-63
2022/01/09 02:02:34;;;;;;;;;4.50;1.00;;;;;9.69;62.14;99932.09;5068414;28;45517;-63
2022/01/09 02:04:59;;;;;;;;;1.00;0.50;;;;;9.69;61.62;99931.19;5063525;28;45556;-63
2022/01/09 02:07:27;;;;;;;;;5.00;1.00;;;;;9.64;61.71;99947.41;5063971;28;45232;-63
2022/01/09 02:09:53;;;;;;;;;3.00;1.00;;;;;9.61;61.64;99937.72;5060316;28;45489;-63
2022/01/09 02:12:18;;;;;;;;;3.25;1.25;;;;;9.60;61.59;99948.44;5063786;28;45390;-63
2022/01/09 02:14:46;;;;;;;;;0.25;0.25;;;;;9.57;61.30;99957.44;5061515;28;45489;-63
2022/01/09 02:17:19;;;;;;;;;1.50;1.50;;;;;9.60;61.72;99964.44;5064736;28;46196;-63
2022/01/09 02:19:55;;;;;;;;;2.00;1.00;;;;;9.61;61.94;99951.06;5062753;28;45489;-63
2022/01/09 02:22:21;;;;;;;;;0.00;0.00;;;;;9.60;61.43;99957.28;5069241;28;45420;-63
2022/01/09 02:24:46;;;;;;;;;1.00;0.00;;;;;9.59;61.11;99973.38;5065940;28;45475;-63
2022/01/09 02:27:12;;;;;;;;;1.00;0.00;;;;;9.56;61.66;99970.84;5070970;28;45924;-63
2022/01/09 02:29:37;;;;;;;;;1.00;0.50;;;;;9.56;61.29;99977.03;5071777;28;45401;-63
2022/01/09 02:32:03;;;;;;;;;0.25;0.00;;;;;9.54;61.03;99965.56;5080494;27;45368;-63
2022/01/09 02:34:29;;;;;;;;;0.00;0.00;;;;;9.50;61.17;99963.06;5068754;28;45532;-63
2022/01/09 02:36:54;;;;;;;;;1.00;0.00;;;;;9.53;60.96;99969.16;5073996;28;45507;-63
2022/01/09 02:39:19;;;;;;;;;1.50;0.00;;;;;9.53;61.03;99979.81;5069420;28;45330;-63
2022/01/09 02:41:44;;;;;;;;;1.50;0.00;;;;;9.56;60.55;99976.16;5074854;28;45306;-63
2022/01/09 02:44:10;;;;;;;;;0.00;0.00;;;;;9.54;60.58;99989.53;5072569;28;45484;-63
2022/01/09 02:49:13;;;;;;;;;1.50;0.00;;;;;9.57;60.31;100013.41;5074782;28;45553;-63
2022/01/09 02:51:44;;;;;;;;;1.00;0.00;;;;;9.53;60.76;99997.59;5065370;28;45411;-63
2022/01/09 02:55:06;;;;;;;;;1.00;0.00;;;;;9.50;60.91;100011.88;5067758;28;45442;-63
2022/01/09 02:56:58;;;;;;;;;1.00;0.00;;;;;9.51;61.33;100012.78;5066598;27;45352;-63
2022/01/09 02:59:23;;;;;;;;;0.00;0.00;;;;;9.50;61.23;99997.72;5073208;28;45552;-63
2022/01/09 03:01:48;;;;;;;;;0.00;0.00;;;;;9.52;61.41;100012.72;5075620;27;45394;-63
2022/01/09 03:04:14;;;;;;;;;0.75;0.00;;;;;9.53;61.20;100021.56;5068793;28;45544;-63
2022/01/09 03:06:40;;;;;;;;;1.75;0.00;;;;;9.50;60.94;100014.56;5070046;28;46179;-63
2022/01/09 03:09:07;;;;;;;;;1.25;0.00;;;;;9.52;61.25;100025.16;5062618;28;45318;-63
2022/01/09 03:11:33;;;;;;;;;1.00;0.00;;;;;9.50;61.18;100016.38;5070117;28;45300;-63
2022/01/09 03:13:58;;;;;;;;;0.50;0.00;;;;;9.55;61.40;100031.22;5080127;28;45301;-63
2022/01/09 03:16:23;;;;;;;;;0.00;0.00;;;;;9.57;60.99;100025.84;5065370;28;45246;-63
2022/01/09 03:18:49;;;;;;;;;0.00;0.00;;;;;9.54;61.50;100034.84;5072727;28;45283;-63
2022/01/09 03:21:14;;;;;;;;;2.50;0.00;;;;;9.55;61.13;100031.22;5064319;28;45332;-63
2022/01/09 03:23:39;;;;;;;;;2.25;0.00;;;;;9.49;61.10;100022.59;5061872;28;45507;-63
2022/01/09 03:26:08;;;;;;;;;0.00;0.00;;;;;9.50;60.75;100035.88;5089035;27;46914;-63
2022/01/09 03:28:34;;;;;;;;;0.00;0.00;;;;;9.46;61.15;100048.44;5059093;28;45656;-63
2022/01/09 03:30:59;;;;;;;;;0.50;0.00;;;;;9.38;60.56;100031.88;5074093;28;45324;-63
2022/01/09 03:33:25;;;;;;;;;0.00;0.00;;;;;9.39;60.82;100030.97;5077754;27;45288;-63
2022/01/09 03:35:50;;;;;;;;;0.00;0.00;;;;;9.40;60.53;100034.50;5058398;28;46956;-63
2022/01/09 03:38:15;;;;;;;;;0.00;0.00;;;;;9.45;61.22;100052.06;5071877;28;45405;-63
2022/01/09 03:40:41;;;;;;;;;1.75;1.00;;;;;9.45;60.92;100051.16;5066760;28;45623;-63
2022/01/09 03:43:06;;;;;;;;;1.75;1.00;;;;;9.46;61.30;100076.91;5072109;28;45328;-63
2022/01/09 03:45:31;;;;;;;;;1.75;0.00;;;;;9.46;61.60;100074.22;5070099;28;45457;-63
2022/01/09 03:47:57;;;;;;;;;1.50;0.00;;;;;9.44;61.42;100078.75;5059362;28;45446;-63
2022/01/09 03:50:23;;;;;;;;;0.75;0.75;;;;;9.39;61.63;100072.75;5076786;28;45347;-63
2022/01/09 03:52:49;;;;;;;;;3.00;0.00;;;;;9.46;61.51;100077.75;5059446;28;45323;-63
2022/01/09 03:55:17;;;;;;;;;0.50;0.00;;;;;9.41;61.53;100071.72;5070993;28;46900;-63
2022/01/09 03:57:43;;;;;;;;;0.00;0.00;;;;;9.52;62.10;100086.44;5066286;28;45519;-63
2022/01/09 04:00:12;;;;;;;;;0.00;0.00;;;;;9.53;62.13;100080.19;5075402;28;45430;-63
2022/01/09 04:02:38;;;;;;;;;0.50;0.00;;;;;9.49;62.42;100087.44;5067056;28;45447;-63
2022/01/09 04:05:04;;;;;;;;;0.25;0.00;;;;;9.43;62.04;100080.53;5071533;28;46106;-63
2022/01/09 04:07:29;;;;;;;;;1.75;0.00;;;;;9.49;62.57;100084.78;5074524;28;46861;-63
2022/01/09 04:09:55;;;;;;;;;1.00;0.00;;;;;9.49;62.71;100081.22;5070885;28;45475;-63
2022/01/09 04:12:32;;;;;;;;;0.00;0.00;;;;;9.50;62.49;100066.97;5074256;28;45505;-63
2022/01/09 04:15:00;;;;;;;;;2.50;0.75;;;;;9.48;62.74;100067.03;5066307;28;45305;-63
2022/01/09 04:17:40;;;;;;;;;0.00;0.00;;;;;9.45;62.31;100059.16;5075329;28;45630;-63
2022/01/09 04:20:07;;;;;;;;;2.00;1.00;;;;;9.51;62.37;100068.72;5081312;28;45536;-63
2022/01/09 04:22:33;;;;;;;;;0.00;0.00;;;;;9.50;62.36;100065.16;5066700;28;45253;-63
2022/01/09 04:24:58;;;;;;;;;0.00;0.00;;;;;9.53;62.36;100070.38;5066867;28;46277;-63
2022/01/09 04:27:24;;;;;;;;;2.00;0.50;;;;;9.54;62.14;100076.56;5062744;28;45340;-63
2022/01/09 04:29:49;;;;;;;;;1.00;0.00;;;;;9.53;62.60;100083.72;5075339;28;45306;-63
2022/01/09 04:32:14;;;;;;;;;1.00;0.00;;;;;9.54;62.23;100080.13;5073998;27;45647;-63
2022/01/09 04:34:40;;;;;;;;;0.00;0.00;;;;;9.53;62.11;100086.38;5063430;28;46171;-63
2022/01/09 04:37:05;;;;;;;;;0.00;0.00;;;;;9.52;62.08;100086.44;5075097;28;45397;-63
2022/01/09 04:39:31;;;;;;;;;1.00;0.00;;;;;9.52;62.13;100090.00;5076896;28;45341;-63
2022/01/09 04:41:57;;;;;;;;;3.00;0.00;;;;;9.54;61.93;100081.91;5066639;28;45323;-63
2022/01/09 04:44:23;;;;;;;;;1.50;0.00;;;;;9.46;61.85;100061.75;5072197;28;45877;-63
2022/01/09 04:46:56;;;;;;;;;1.00;0.00;;;;;9.49;62.40;100078.56;5067682;28;45335;-63
2022/01/09 04:49:25;;;;;;;;;0.00;0.00;;;;;9.46;61.95;100076.91;5078046;28;45792;-63
2022/01/09 04:51:50;;;;;;;;;2.50;0.00;;;;;9.43;62.29;100091.19;5064062;28;45306;-63
2022/01/09 04:54:16;;;;;;;;;0.25;0.00;;;;;9.43;61.89;100100.97;5072759;28;46778;-63
2022/01/09 04:56:41;;;;;;;;;2.00;0.00;;;;;9.44;61.89;100100.94;5069540;28;45289;-63
2022/01/09 04:59:07;;;;;;;;;2.00;0.00;;;;;9.48;62.31;100098.16;5073922;28;45509;-63
2022/01/09 05:01:32;;;;;;;;;1.00;0.00;;;;;9.48;62.84;100092.81;5061988;28;45484;-63
2022/01/09 05:03:57;;;;;;;;;0.75;0.25;;;;;9.45;62.49;100084.03;5073795;27;45378;-63
2022/01/09 05:06:24;;;;;;;;;0.00;0.00;;;;;9.52;62.25;100095.31;5075003;28;45440;-63
2022/01/09 05:08:49;;;;;;;;;0.00;0.00;;;;;9.44;62.32;100092.94;5063911;28;45443;-63
2022/01/09 05:11:15;;;;;;;;;2.25;0.00;;;;;9.52;62.31;100105.97;5061039;28;45389;-63
2022/01/09 05:13:40;;;;;;;;;0.75;0.00;;;;;9.43;62.71;100093.00;5074031;28;45417;-63
2022/01/09 05:16:06;;;;;;;;;1.00;0.00;;;;;9.45;62.68;100110.66;5070042;28;45354;-63
2022/01/09 05:18:39;;;;;;;;;0.00;0.00;;;;;9.45;62.79;100102.69;5064830;28;45597;-63
2022/01/09 05:21:05;;;;;;;;;0.25;0.00;;;;;9.42;62.70;100089.47;5061446;28;45314;-63
2022/01/09 05:23:30;;;;;;;;;0.00;0.00;;;;;9.40;63.14;100087.78;5063536;28;45469;-63
2022/01/09 05:25:55;;;;;;;;;1.00;0.25;;;;;9.41;63.27;100081.53;5076361;28;45619;-63
2022/01/09 05:28:21;;;;;;;;;2.00;0.00;;;;;9.38;63.11;100077.16;5064560;28;45381;-63
2022/01/09 05:30:46;;;;;;;;;0.00;0.00;;;;;9.39;62.77;100073.59;5072269;28;45432;-63
2022/01/09 05:33:11;;;;;;;;;0.00;0.00;;;;;9.32;62.80;100063.22;5069121;28;46428;-63
2022/01/09 05:35:37;;;;;;;;;1.00;0.00;;;;;9.38;63.14;100073.66;5067581;28;45591;-63
2022/01/09 05:38:02;;;;;;;;;4.00;0.50;;;;;9.40;63.12;100080.63;5075111;28;45418;-63
2022/01/09 05:40:27;;;;;;;;;1.00;0.75;;;;;9.37;63.50;100058.59;5068819;28;45399;-63
2022/01/09 05:42:53;;;;;;;;;0.50;0.25;;;;;9.41;63.19;100070.88;5074051;28;46005;-63
2022/01/09 05:45:19;;;;;;;;;3.25;1.00;;;;;9.44;63.47;100070.75;5061925;28;45444;-63
2022/01/09 05:47:45;;;;;;;;;2.75;0.00;;;;;9.42;63.01;100061.94;5072769;28;45352;-63
2022/01/09 05:50:11;;;;;;;;;1.25;1.00;;;;;9.43;63.58;100069.88;5077248;28;45267;-63
2022/01/09 05:52:36;;;;;;;;;2.75;1.50;;;;;9.45;62.99;100072.47;5072834;28;46033;-63
2022/01/09 05:55:03;;;;;;;;;2.25;0.00;;;;;9.48;63.50;100074.16;5067746;28;45314;-63
2022/01/09 05:57:29;;;;;;;;;0.25;0.25;;;;;9.49;63.17;100081.22;5064709;28;45376;-63
2022/01/09 05:59:54;;;;;;;;;1.50;1.00;;;;;9.50;63.40;100081.16;5074238;28;45514;-63
2022/01/09 06:02:19;;;;;;;;;4.00;1.00;;;;;9.45;63.33;100077.81;5064959;28;46701;-63
2022/01/09 06:04:45;;;;;;;;;1.00;1.00;;;;;9.52;62.99;100084.66;5070361;28;45343;-63
2022/01/09 06:07:10;;;;;;;;;0.25;0.25;;;;;9.48;63.19;100076.84;5068370;27;45337;-63
2022/01/09 06:09:36;;;;;;;;;2.00;1.00;;;;;9.51;63.07;100095.38;5066427;28;45548;-63
2022/01/09 06:12:01;;;;;;;;;2.25;0.00;;;;;9.52;63.41;100105.09;5066485;28;46089;-63
2022/01/09 06:14:26;;;;;;;;;1.00;0.00;;;;;9.48;63.54;100104.34;5073319;28;45361;-63
2022/01/09 06:16:52;;;;;;;;;1.75;0.75;;;;;9.50;63.50;100110.47;5066028;28;45283;-63
2022/01/09 06:19:17;;;;;;;;;4.00;1.00;;;;;9.51;63.45;100117.53;5080586;28;45559;-63
2022/01/09 06:21:42;;;;;;;;;1.00;0.00;;;;;9.51;63.35;100120.22;5064349;28;45296;-63
2022/01/09 06:24:08;;;;;;;;;3.00;0.50;;;;;9.48;63.49;100103.47;5071122;28;45529;-63
2022/01/09 06:26:33;;;;;;;;;0.00;0.00;;;;;9.53;63.25;100117.50;5071354;28;45380;-63
2022/01/09 06:28:59;;;;;;;;;1.75;0.75;;;;;9.51;63.26;100117.53;5065207;28;45494;-63
2022/01/09 06:31:24;;;;;;;;;1.00;0.00;;;;;9.52;62.94;100124.63;5073840;28;46209;-63
2022/01/09 06:33:49;;;;;;;;;0.75;0.00;;;;;9.53;63.25;100126.34;5074446;27;45475;-63
2022/01/09 06:36:15;;;;;;;;;3.00;0.00;;;;;9.47;63.07;100123.91;5069580;28;45343;-63
2022/01/09 06:38:40;;;;;;;;;3.75;0.00;;;;;9.53;63.26;100117.50;5072160;28;45145;-63
2022/01/09 06:41:05;;;;;;;;;0.25;0.00;;;;;9.52;63.41;100113.06;5072401;28;46335;-63
2022/01/09 06:43:31;;;;;;;;;0.50;0.00;;;;;9.53;63.54;100126.34;5070627;28;45330;-63
2022/01/09 06:45:56;;;;;;;;;0.00;0.00;;;;;9.53;63.47;100123.69;5071483;28;45374;-62
2022/01/09 06:48:22;;;;;;;;;0.50;0.00;;;;;9.49;62.99;100132.72;5066937;27;45568;-63
2022/01/09 06:50:47;;;;;;;;;0.00;0.00;;;;;9.56;63.05;100147.53;5077769;28;45308;-63
2022/01/09 06:53:12;;;;;;;;;0.50;0.00;;;;;9.54;63.26;100137.84;5062984;28;45672;-63
2022/01/09 06:55:38;;;;;;;;;0.00;0.00;;;;;9.45;62.66;100142.63;5059630;28;45421;-63
2022/01/09 06:58:03;;;;;;;;;0.00;0.00;;;;;9.43;62.34;100119.63;5070023;28;45446;-63
2022/01/09 07:00:28;;;;;;;;;0.00;0.00;;;;;9.44;62.94;100114.25;5066338;28;45347;-63
2022/01/09 07:02:54;;;;;;;;;0.00;0.00;;;;;9.40;62.51;100106.41;5060181;28;45306;-63
2022/01/09 07:05:19;;;;;;;;;0.00;0.00;;;;;9.39;63.35;100124.22;5063379;28;45298;-63
2022/01/09 07:07:44;;;;;;;;;0.00;0.00;;;;;9.39;62.75;100131.34;5062355;27;45449;-63
2022/01/09 07:10:11;;;;;;;;;2.00;0.00;;;;;9.38;62.90;100126.94;5063650;28;46088;-63
2022/01/09 07:12:36;;;;;;;;;0.00;0.00;;;;;9.36;62.83;100118.13;5059440;28;45376;-63
2022/01/09 07:15:03;;;;;;;;;1.25;0.00;;;;;9.32;63.49;100113.81;5059842;28;45524;-63
2022/01/09 07:17:28;;;;;;;;;0.00;0.00;;;;;9.37;63.15;100118.06;5069166;28;45263;-63
2022/01/09 07:19:54;;;;;;;;;0.75;0.00;;;;;9.41;63.31;100137.47;5079442;28;45952;-63
2022/01/09 07:22:19;;;;;;;;;0.00;0.00;;;;;9.39;63.40;100134.00;5060239;28;45280;-63
2022/01/09 07:24:44;;;;;;;;;1.25;0.50;;;;;9.40;63.83;100125.94;5078592;28;45329;-63
2022/01/09 07:27:10;;;;;;;;;1.00;1.00;;;;;9.39;63.49;100134.88;5073826;28;45298;-63
2022/01/09 07:29:35;;;;;;;;;0.00;0.00;;;;;9.43;63.84;100135.63;5067280;28;45334;-63
2022/01/09 07:32:01;;;;;;;;;1.00;1.00;;;;;9.42;64.04;100139.19;5068769;27;45240;-63
2022/01/09 07:34:27;;;;;;;;;0.75;0.00;;;;;9.42;63.90;100145.41;5063446;28;45375;-63
2022/01/09 07:36:52;;;;;;;;;0.00;0.00;;;;;9.38;63.78;100135.78;5062960;28;45576;-63
2022/01/09 07:39:18;;;;;;;;;0.00;0.00;;;;;9.34;63.97;100128.84;5063175;28;45279;-63
2022/01/09 07:41:44;;;;;;;;;1.75;1.00;;;;;9.39;63.71;100134.88;5067956;28;45278;-63
2022/01/09 07:44:09;;;;;;;;;1.00;0.00;;;;;9.44;64.17;100140.88;5071063;28;45284;-63
2022/01/09 07:46:35;;;;;;;;;0.00;0.00;;;;;9.44;64.34;100130.22;5062489;28;45807;-63
2022/01/09 07:49:00;;;;;;;;;2.00;0.00;;;;;9.45;64.06;100136.41;5068677;28;46656;-63
2022/01/09 07:51:26;;;;;;;;;0.00;0.00;;;;;9.46;64.09;100132.84;5077427;27;45319;-63
2022/01/09 07:53:51;;;;;;;;;0.00;0.00;;;;;9.49;64.14;100145.16;5062964;28;45310;-63
2022/01/09 07:56:17;;;;;;;;;1.25;0.00;;;;;9.52;64.43;100153.94;5062388;28;45307;-63
2022/01/09 07:58:42;;;;;;;;;0.00;0.00;;;;;9.50;64.21;100142.44;5076509;28;45804;-63
2022/01/09 08:01:08;;;;;;;;;4.00;3.00;;;;;9.52;64.44;100147.72;5068569;28;45469;-63
2022/01/09 08:03:34;;;;;;;;;3.50;1.75;;;;;9.55;64.54;100155.59;5067744;28;45224;-63
2022/01/09 08:06:00;;;;;;;;;0.00;0.00;;;;;9.57;64.65;100156.41;5065762;28;45705;-63
2022/01/09 08:08:25;;;;;;;;;2.25;0.00;;;;;9.57;64.39;100151.97;5076161;28;45321;-63
2022/01/09 08:10:52;;;;;;;;;1.75;0.00;;;;;9.57;64.94;100145.75;5062459;28;45240;-63
2022/01/09 08:13:17;;;;;;;;;1.00;0.00;;;;;9.55;64.17;100134.28;5062274;28;45306;-63
2022/01/09 08:15:42;;;;;;;;;0.50;0.00;;;;;9.52;64.47;100121.97;5062685;28;45315;-63
2022/01/09 08:18:08;;;;;;;;;0.25;0.25;;;;;9.57;64.42;100135.97;5078053;28;45263;-63
2022/01/09 08:20:33;;;;;;;;;1.00;0.00;;;;;9.55;64.46;100128.94;5073905;28;45325;-64
2022/01/09 08:22:59;;;;;;;;;0.25;0.25;;;;;9.56;64.32;100139.56;5062387;28;45383;-65
2022/01/09 08:25:24;;;;;;;;;0.00;0.00;;;;;9.57;64.34;100140.41;5065821;28;45477;-65
2022/01/09 08:27:50;;;;;;;;;1.00;1.00;;;;;9.59;64.22;100158.09;5062189;28;46134;-65
2022/01/09 08:30:18;;;;;;;;;0.00;0.00;;;;;9.62;64.52;100149.09;5070605;28;45485;-66
2022/01/09 08:32:44;;;;;;;;;0.50;0.25;;;;;9.62;64.69;100144.66;5072093;28;45583;-65
2022/01/09 08:35:10;;;;;;;;;1.00;1.00;;;;;9.60;64.65;100137.63;5073767;28;45715;-65
2022/01/09 08:37:36;;;;;;;;;0.25;0.25;;;;;9.61;64.45;100148.25;5069078;27;46133;-65
2022/01/09 08:40:02;;;;;;;;;0.75;0.75;;;;;9.59;64.56;100150.09;5090301;27;45827;-65
2022/01/09 08:42:27;;;;;;;;;1.75;0.00;;;;;9.60;64.09;100153.63;5074714;28;45314;-65
2022/01/09 08:44:53;;;;;;;;;1.50;1.00;;;;;9.58;64.47;100148.34;5066940;28;45323;-65
2022/01/09 08:47:18;;;;;;;;;1.00;1.00;;;;;9.56;64.36;100141.34;5074667;28;45409;-65
2022/01/09 08:49:43;;;;;;;;;4.00;0.75;;;;;9.57;64.61;100127.09;5065150;27;45588;-65
2022/01/09 08:52:09;;;;;;;;;2.00;2.00;;;;;9.54;64.51;100127.19;5075508;28;45488;-65
2022/01/09 08:54:34;;;;;;;;;1.75;0.00;;;;;9.51;63.67;100136.19;5070332;28;45567;-65
2022/01/09 08:57:00;;;;;;;;;0.25;0.00;;;;;9.42;64.06;100121.44;5081825;27;46301;-65
2022/01/09 08:59:28;;;;;;;;;0.00;0.00;;;;;9.46;64.16;100141.69;5086692;27;45247;-65
2022/01/09 09:01:55;;;;;;;;;0.00;0.00;;;;;9.47;64.23;100129.22;5067866;28;45395;-65
2022/01/09 09:04:21;;;;;;;;;0.00;0.00;;;;;9.41;63.53;100125.00;5071074;28;45333;-65
2022/01/09 09:06:46;;;;;;;;;0.00;0.00;;;;;9.46;64.46;100136.34;5072482;28;48144;-65
2022/01/09 09:09:11;;;;;;;;;0.00;0.00;;;;;9.46;64.38;100138.16;5061605;28;45322;-65
2022/01/09 09:11:38;;;;;;;;;0.00;0.00;;;;;9.44;64.02;100138.22;5069582;28;45303;-69
2022/01/09 09:14:04;;;;;;;;;0.00;0.00;;;;;9.46;64.53;100143.50;5073018;28;45224;-68
2022/01/09 09:16:30;;;;;;;;;0.00;0.00;;;;;9.38;64.64;100137.59;5066400;27;45415;-68
2022/01/09 09:18:56;;;;;;;;;0.00;0.00;;;;;9.48;64.67;100157.63;5079385;28;45339;-70
2022/01/09 09:21:21;;;;;;;;;0.75;0.00;;;;;9.47;64.80;100158.53;5081189;27;45392;-69
2022/01/09 09:23:47;;;;;;;;;0.00;0.00;;;;;9.46;64.93;100160.34;5064889;28;45612;-68
2022/01/09 09:26:12;;;;;;;;;0.00;0.00;;;;;9.48;64.71;100160.28;5064792;28;45866;-65
2022/01/09 09:28:38;;;;;;;;;0.00;0.00;;;;;9.51;65.01;100162.84;5075770;28;45523;-65
2022/01/09 09:31:04;;;;;;;;;0.00;0.00;;;;;9.53;64.46;100176.09;5071853;28;45358;-64
2022/01/09 09:33:30;;;;;;;;;0.25;0.25;;;;;9.50;64.22;100177.06;5072102;28;45568;-64
2022/01/09 09:35:58;;;;;;;;;2.00;1.00;;;;;9.52;64.97;100171.69;5070117;27;45688;-64
2022/01/09 09:38:24;;;;;;;;;0.75;0.75;;;;;9.54;64.71;100176.06;5069880;27;45702;-66
2022/01/09 09:40:50;;;;;;;;;1.00;0.00;;;;;9.51;64.93;100157.50;5062591;27;45701;-70
2022/01/09 09:43:16;;;;;;;;;0.75;0.75;;;;;9.51;65.21;100154.84;5066240;27;45768;-67
2022/01/09 09:45:43;;;;;;;;;1.75;1.75;;;;;9.50;64.75;100150.44;5061303;27;45847;-64
2022/01/09 09:48:08;;;;;;;;;2.25;1.00;;;;;9.58;65.06;100161.66;5065602;27;45414;-64
2022/01/09 09:50:34;;;;;;;;;0.75;0.75;;;;;9.57;64.86;100165.28;5058630;27;45759;-63
2022/01/09 09:53:01;;;;;;;;;2.00;1.00;;;;;9.61;64.75;100169.56;5058380;27;45975;-63
2022/01/09 09:55:27;;;;;;;;;5.50;1.00;;;;;9.57;65.15;100172.38;5059293;27;46069;-64
2022/01/09 09:57:52;;;;;;;;;2.75;0.25;;;;;9.63;64.88;100186.34;5061046;27;45326;-64
2022/01/09 10:00:20;;;;;;;;;0.75;0.75;;;;;9.58;64.87;100185.66;5063892;27;45814;-65
2022/01/09 10:02:50;;;;;;;;;0.00;0.00;;;;;9.64;65.08;100190.75;5077342;27;45579;-65
2022/01/09 10:05:22;;;;;;;;;0.00;0.00;;;;;9.60;64.96;100189.13;5071733;27;45488;-64
2022/01/09 10:07:48;;;;;;;;;0.00;0.00;;;;;9.63;64.73;100196.16;5066755;27;45473;-64
2022/01/09 10:10:18;;;;;;;;;1.00;1.00;;;;;9.61;64.58;100196.19;5063155;27;45429;-64
2022/01/09 10:12:46;;;;;;;;;1.00;0.00;;;;;9.59;64.57;100189.22;5063301;27;45577;-65
2022/01/09 10:15:14;;;;;;;;;0.25;0.00;;;;;9.62;64.63;100187.28;5068717;27;48565;-64
2022/01/09 10:17:48;;;;;;;;;1.00;1.00;;;;;9.66;64.49;100179.19;5066654;27;45636;-65
2022/01/09 10:20:19;;;;;;;;;1.75;1.75;;;;;9.67;64.61;100184.44;5064271;27;45368;-64
2022/01/09 10:22:49;;;;;;;;;0.00;0.00;;;;;9.69;63.97;100193.25;5070033;27;45405;-65
2022/01/09 10:25:26;;;;;;;;;0.00;0.00;;;;;9.70;64.38;100192.31;5067150;27;45702;-64
2022/01/09 10:28:03;;;;;;;;;0.00;0.00;;;;;9.71;63.87;100190.53;5064230;27;45765;-65
2022/01/09 10:30:39;;;;;;;;;1.75;1.00;;;;;9.72;64.57;100187.81;5071079;27;45347;-65
2022/01/09 10:33:12;;;;;;;;;2.75;0.00;;;;;9.73;64.39;100194.88;5057935;27;45556;-64
2022/01/09 10:35:40;;;;;;;;;0.00;0.00;;;;;9.76;64.33;100202.75;5062870;27;46088;-65
2022/01/09 10:38:13;;;;;;;;;0.75;0.75;;;;;9.78;64.11;100213.38;5067362;27;45528;-65
2022/01/09 10:40:40;;;;;;;;;0.00;0.00;;;;;9.79;64.02;100207.13;5059497;27;45622;-64
2022/01/09 10:43:13;;;;;;;;;1.00;1.00;;;;;9.79;64.77;100212.44;5063345;27;45399;-65
2022/01/09 10:45:41;;;;;;;;;1.50;0.00;;;;;9.82;64.18;100201.66;5061571;27;45450;-69
2022/01/09 10:48:11;;;;;;;;;0.00;0.00;;;;;9.78;64.22;100198.22;5074108;27;45445;-63
2022/01/09 10:50:39;;;;;;;;;1.00;1.00;;;;;9.72;64.15;100187.81;5066802;27;45466;-62
2022/01/09 10:53:31;;;;;;;;;2.00;1.00;;;;;9.80;64.71;100201.69;5065229;27;45504;-65
2022/01/09 10:56:19;;;;;;;;;1.00;0.00;;;;;9.76;64.29;100207.22;5063445;27;45486;-64
2022/01/09 10:58:50;;;;;;;;;1.00;1.00;;;;;9.69;64.49;100211.03;5069897;27;45599;-64
2022/01/09 11:01:20;;;;;;;;;0.00;0.00;;;;;9.71;64.04;100212.72;5081264;27;45330;-63
2022/01/09 11:03:49;;;;;;;;;0.00;0.00;;;;;9.64;64.22;100197.91;5067937;28;45528;-64
2022/01/09 11:06:15;;;;;;;;;0.00;0.00;;;;;9.74;64.67;100209.06;5069404;28;46289;-64
2022/01/09 11:08:42;;;;;;;;;1.00;0.00;;;;;9.73;64.00;100210.88;5064558;28;45370;-64
2022/01/09 11:11:17;;;;;;;;;2.00;0.00;;;;;9.66;64.50;100198.72;5077238;28;45453;-64
2022/01/09 11:13:45;;;;;;;;;0.00;0.00;;;;;9.73;64.41;100224.19;5066100;28;45299;-64
2022/01/09 11:19:00;;;;;;;;;0.50;0.50;;;;;9.70;64.12;100224.31;5068108;28;45831;-64
2022/01/09 11:21:26;;;;;;;;;0.00;0.00;;;;;9.64;64.32;100214.75;5067985;28;45726;-64
2022/01/09 11:23:57;;;;;;;;;0.00;0.00;;;;;9.69;64.64;100222.59;5070136;28;45620;-64
2022/01/09 11:26:30;;;;;;;;;1.00;0.00;;;;;9.68;64.05;100211.97;5075536;28;45481;-64
2022/01/09 11:28:56;;;;;;;;;0.50;0.00;;;;;9.67;63.65;100219.06;5075635;28;45442;-64
2022/01/09 11:31:42;;;;;;;;;0.00;0.00;;;;;9.66;64.47;100213.84;5060662;27;45554;-64
2022/01/09 11:34:38;;;;;;;;;1.50;1.00;;;;;9.67;64.10;100227.06;5065053;28;45512;-64
2022/01/09 11:37:12;;;;;;;;;0.00;0.00;;;;;9.67;64.29;100223.56;5066535;27;46094;-64
2022/01/09 11:39:38;;;;;;;;;2.00;2.00;;;;;9.62;64.48;100221.94;5075879;27;45489;-64